sensor_id;sensor_type;location;lat;lon;timestamp;temperature;humidity
68098;DHT22;54886;47.036;15.466;2022-07-12T00:01:48;17.45;59.95
68098;DHT22;54886;47.036;15.466;2022-07-12T00:04:14;17.44;59.53
68098;DHT22;54886;47.036;15.466;2022-07-12T00:06:39;17.47;58.01
68098;DHT22;54886;47.036;15.466;2022-07-12T00:09:05;17.51;56.34
68098;DHT22;54886;47.036;15.466;2022-07-12T00:11:30;17.51;55.99
68098;DHT22;54886;47.036;15.466;2022-07-12T00:13:56;17.50;55.93
68098;DHT22;54886;47.036;15.466;2022-07-12T00:16:21;17.50;55.89
68098;DHT22;54886;47.036;15.466;2022-07-12T00:18:48;17.44;56.65
68098;DHT22;54886;47.036;15.466;2022-07-12T00:21:14;17.51;57.71
68098;DHT22;54886;47.036;15.466;2022-07-12T00:23:39;17.47;58.62
68098;DHT22;54886;47.036;15.466;2022-07-12T00:26:05;17.45;57.35
68098;DHT22;54886;47.036;15.466;2022-07-12T00:28:31;17.48;56.80
68098;DHT22;54886;47.036;15.466;2022-07-12T00:30:57;17.38;58.05
68098;DHT22;54886;47.036;15.466;2022-07-12T00:33:23;17.42;58.81
68098;DHT22;54886;47.036;15.466;2022-07-12T00:35:48;17.34;59.62
68098;DHT22;54886;47.036;15.466;2022-07-12T00:38:14;17.35;59.13
68098;DHT22;54886;47.036;15.466;2022-07-12T00:40:39;17.37;60.40
68098;DHT22;54886;47.036;15.466;2022-07-12T00:43:04;17.34;59.74
68098;DHT22;54886;47.036;15.466;2022-07-12T00:45:30;17.37;60.22
68098;DHT22;54886;47.036;15.466;2022-07-12T00:47:55;17.35;59.81
68098;DHT22;54886;47.036;15.466;2022-07-12T00:50:22;17.35;58.68
68098;DHT22;54886;47.036;15.466;2022-07-12T00:52:50;17.41;59.03
68098;DHT22;54886;47.036;15.466;2022-07-12T00:55:17;17.37;60.65
68098;DHT22;54886;47.036;15.466;2022-07-12T00:57:43;17.35;61.17
68098;DHT22;54886;47.036;15.466;2022-07-12T01:00:11;17.40;60.25
68098;DHT22;54886;47.036;15.466;2022-07-12T01:02:38;17.33;60.18
68098;DHT22;54886;47.036;15.466;2022-07-12T01:05:05;17.37;60.54
68098;DHT22;54886;47.036;15.466;2022-07-12T01:07:31;17.35;59.49
68098;DHT22;54886;47.036;15.466;2022-07-12T01:09:58;17.33;59.90
68098;DHT22;54886;47.036;15.466;2022-07-12T01:12:24;17.35;59.05
68098;DHT22;54886;47.036;15.466;2022-07-12T01:14:50;17.37;60.15
68098;DHT22;54886;47.036;15.466;2022-07-12T01:17:26;17.37;60.44
68098;DHT22;54886;47.036;15.466;2022-07-12T01:19:54;17.34;60.24
68098;DHT22;54886;47.036;15.466;2022-07-12T01:22:23;17.34;61.60
68098;DHT22;54886;47.036;15.466;2022-07-12T01:24:50;17.37;61.11
68098;DHT22;54886;47.036;15.466;2022-07-12T01:27:15;17.37;62.11
68098;DHT22;54886;47.036;15.466;2022-07-12T01:29:41;17.30;62.78
68098;DHT22;54886;47.036;15.466;2022-07-12T01:32:07;17.35;60.20
68098;DHT22;54886;47.036;15.466;2022-07-12T01:34:53;17.35;61.10
68098;DHT22;54886;47.036;15.466;2022-07-12T01:37:19;17.40;56.94
68098;DHT22;54886;47.036;15.466;2022-07-12T01:39:45;17.38;59.96
68098;DHT22;54886;47.036;15.466;2022-07-12T01:42:11;17.41;59.81
68098;DHT22;54886;47.036;15.466;2022-07-12T01:44:36;17.38;60.30
68098;DHT22;54886;47.036;15.466;2022-07-12T01:47:02;17.37;60.01
68098;DHT22;54886;47.036;15.466;2022-07-12T01:49:28;17.33;61.33
68098;DHT22;54886;47.036;15.466;2022-07-12T01:51:57;17.33;60.27
68098;DHT22;54886;47.036;15.466;2022-07-12T01:54:24;17.35;59.16
68098;DHT22;54886;47.036;15.466;2022-07-12T01:56:50;17.33;60.21
68098;DHT22;54886;47.036;15.466;2022-07-12T01:59:15;17.33;57.82
68098;DHT22;54886;47.036;15.466;2022-07-12T02:01:41;17.34;58.32
68098;DHT22;54886;47.036;15.466;2022-07-12T02:04:08;17.35;59.85
68098;DHT22;54886;47.036;15.466;2022-07-12T02:06:34;17.33;58.40
68098;DHT22;54886;47.036;15.466;2022-07-12T02:09:00;17.33;58.10
68098;DHT22;54886;47.036;15.466;2022-07-12T02:11:25;17.33;57.05
68098;DHT22;54886;47.036;15.466;2022-07-12T02:13:51;17.31;56.69
68098;DHT22;54886;47.036;15.466;2022-07-12T02:16:16;17.31;56.86
68098;DHT22;54886;47.036;15.466;2022-07-12T02:18:42;17.34;57.20
68098;DHT22;54886;47.036;15.466;2022-07-12T02:21:08;17.30;57.26
68098;DHT22;54886;47.036;15.466;2022-07-12T02:23:33;17.33;56.49
68098;DHT22;54886;47.036;15.466;2022-07-12T02:25:59;17.30;56.83
68098;DHT22;54886;47.036;15.466;2022-07-12T02:28:24;17.28;57.58
68098;DHT22;54886;47.036;15.466;2022-07-12T02:30:50;17.27;57.40
68098;DHT22;54886;47.036;15.466;2022-07-12T02:33:15;17.30;58.25
68098;DHT22;54886;47.036;15.466;2022-07-12T02:35:42;17.27;57.95
68098;DHT22;54886;47.036;15.466;2022-07-12T02:38:07;17.28;57.10
68098;DHT22;54886;47.036;15.466;2022-07-12T02:40:33;17.27;57.00
68098;DHT22;54886;47.036;15.466;2022-07-12T02:43:17;17.27;57.68
68098;DHT22;54886;47.036;15.466;2022-07-12T02:45:42;17.21;57.56
68098;DHT22;54886;47.036;15.466;2022-07-12T02:48:07;17.21;57.38
68098;DHT22;54886;47.036;15.466;2022-07-12T02:50:35;17.21;58.27
68098;DHT22;54886;47.036;15.466;2022-07-12T02:53:01;17.21;58.22
68098;DHT22;54886;47.036;15.466;2022-07-12T02:55:26;17.20;56.18
68098;DHT22;54886;47.036;15.466;2022-07-12T02:57:51;17.20;57.97
68098;DHT22;54886;47.036;15.466;2022-07-12T03:00:17;17.21;57.29
68098;DHT22;54886;47.036;15.466;2022-07-12T03:02:42;17.23;57.35
68098;DHT22;54886;47.036;15.466;2022-07-12T03:05:08;17.20;57.40
68098;DHT22;54886;47.036;15.466;2022-07-12T03:07:33;17.23;56.33
68098;DHT22;54886;47.036;15.466;2022-07-12T03:09:59;17.19;57.25
68098;DHT22;54886;47.036;15.466;2022-07-12T03:12:24;17.20;57.19
68098;DHT22;54886;47.036;15.466;2022-07-12T03:14:50;17.17;57.31
68098;DHT22;54886;47.036;15.466;2022-07-12T03:17:15;17.17;57.46
68098;DHT22;54886;47.036;15.466;2022-07-12T03:19:41;17.17;57.54
68098;DHT22;54886;47.036;15.466;2022-07-12T03:22:06;17.20;57.12
68098;DHT22;54886;47.036;15.466;2022-07-12T03:24:31;17.20;56.98
68098;DHT22;54886;47.036;15.466;2022-07-12T03:26:57;17.24;56.88
68098;DHT22;54886;47.036;15.466;2022-07-12T03:29:22;17.20;57.38
68098;DHT22;54886;47.036;15.466;2022-07-12T03:31:48;17.23;56.95
68098;DHT22;54886;47.036;15.466;2022-07-12T03:34:14;17.20;57.24
68098;DHT22;54886;47.036;15.466;2022-07-12T03:36:39;17.19;56.13
68098;DHT22;54886;47.036;15.466;2022-07-12T03:39:05;17.17;59.00
68098;DHT22;54886;47.036;15.466;2022-07-12T03:41:30;17.17;58.30
68098;DHT22;54886;47.036;15.466;2022-07-12T03:43:55;17.16;57.89
68098;DHT22;54886;47.036;15.466;2022-07-12T03:46:21;17.24;57.51
68098;DHT22;54886;47.036;15.466;2022-07-12T03:48:46;17.21;57.96
68098;DHT22;54886;47.036;15.466;2022-07-12T03:51:12;17.17;57.66
68098;DHT22;54886;47.036;15.466;2022-07-12T03:53:37;17.16;57.65
68098;DHT22;54886;47.036;15.466;2022-07-12T03:56:02;17.14;57.56
68098;DHT22;54886;47.036;15.466;2022-07-12T03:58:28;17.17;57.83
68098;DHT22;54886;47.036;15.466;2022-07-12T04:00:53;17.16;58.26
68098;DHT22;54886;47.036;15.466;2022-07-12T04:03:19;17.19;57.89
68098;DHT22;54886;47.036;15.466;2022-07-12T04:05:44;17.27;58.29
68098;DHT22;54886;47.036;15.466;2022-07-12T04:08:10;17.27;57.93
68098;DHT22;54886;47.036;15.466;2022-07-12T04:10:35;17.28;57.83
68098;DHT22;54886;47.036;15.466;2022-07-12T04:13:01;17.24;57.91
68098;DHT22;54886;47.036;15.466;2022-07-12T04:15:26;17.23;58.34
68098;DHT22;54886;47.036;15.466;2022-07-12T04:17:52;17.21;58.33
68098;DHT22;54886;47.036;15.466;2022-07-12T04:20:17;17.21;59.08
68098;DHT22;54886;47.036;15.466;2022-07-12T04:22:43;17.20;59.22
68098;DHT22;54886;47.036;15.466;2022-07-12T04:25:08;17.21;58.50
68098;DHT22;54886;47.036;15.466;2022-07-12T04:27:34;17.23;58.86
68098;DHT22;54886;47.036;15.466;2022-07-12T04:30:00;17.19;60.17
68098;DHT22;54886;47.036;15.466;2022-07-12T04:32:25;17.20;61.21
68098;DHT22;54886;47.036;15.466;2022-07-12T04:34:50;17.20;61.75
68098;DHT22;54886;47.036;15.466;2022-07-12T04:37:16;17.23;60.17
68098;DHT22;54886;47.036;15.466;2022-07-12T04:39:41;17.23;60.14
68098;DHT22;54886;47.036;15.466;2022-07-12T04:42:07;17.23;59.88
68098;DHT22;54886;47.036;15.466;2022-07-12T04:44:32;17.23;59.36
68098;DHT22;54886;47.036;15.466;2022-07-12T04:46:57;17.20;58.94
68098;DHT22;54886;47.036;15.466;2022-07-12T04:49:23;17.20;59.22
68098;DHT22;54886;47.036;15.466;2022-07-12T04:51:48;17.20;57.88
68098;DHT22;54886;47.036;15.466;2022-07-12T04:54:14;17.21;58.69
68098;DHT22;54886;47.036;15.466;2022-07-12T04:56:40;17.23;58.61
68098;DHT22;54886;47.036;15.466;2022-07-12T04:59:05;17.24;58.72
68098;DHT22;54886;47.036;15.466;2022-07-12T05:01:31;17.30;58.39
68098;DHT22;54886;47.036;15.466;2022-07-12T05:03:57;17.27;58.53
68098;DHT22;54886;47.036;15.466;2022-07-12T05:06:23;17.24;58.63
68098;DHT22;54886;47.036;15.466;2022-07-12T05:08:49;17.23;58.39
68098;DHT22;54886;47.036;15.466;2022-07-12T05:11:14;17.24;59.18
68098;DHT22;54886;47.036;15.466;2022-07-12T05:13:39;17.23;59.03
68098;DHT22;54886;47.036;15.466;2022-07-12T05:16:07;17.23;59.27
68098;DHT22;54886;47.036;15.466;2022-07-12T05:18:34;17.24;59.12
68098;DHT22;54886;47.036;15.466;2022-07-12T05:21:00;17.26;60.01
68098;DHT22;54886;47.036;15.466;2022-07-12T05:23:25;17.28;59.19
68098;DHT22;54886;47.036;15.466;2022-07-12T05:25:51;17.27;59.22
68098;DHT22;54886;47.036;15.466;2022-07-12T05:28:16;17.30;58.96
68098;DHT22;54886;47.036;15.466;2022-07-12T05:30:43;17.33;57.43
68098;DHT22;54886;47.036;15.466;2022-07-12T05:33:08;17.37;58.51
68098;DHT22;54886;47.036;15.466;2022-07-12T05:35:34;17.40;58.03
68098;DHT22;54886;47.036;15.466;2022-07-12T05:37:59;17.38;58.89
68098;DHT22;54886;47.036;15.466;2022-07-12T05:40:26;17.40;59.13
68098;DHT22;54886;47.036;15.466;2022-07-12T05:42:51;17.45;59.57
68098;DHT22;54886;47.036;15.466;2022-07-12T05:45:17;17.47;59.07
68098;DHT22;54886;47.036;15.466;2022-07-12T05:47:43;17.51;60.13
68098;DHT22;54886;47.036;15.466;2022-07-12T05:50:08;17.52;58.84
68098;DHT22;54886;47.036;15.466;2022-07-12T05:52:34;17.55;58.87
68098;DHT22;54886;47.036;15.466;2022-07-12T05:55:18;17.59;60.34
68098;DHT22;54886;47.036;15.466;2022-07-12T05:57:44;17.62;59.89
68098;DHT22;54886;47.036;15.466;2022-07-12T06:00:09;17.64;56.87
68098;DHT22;54886;47.036;15.466;2022-07-12T06:02:35;17.68;58.00
68098;DHT22;54886;47.036;15.466;2022-07-12T06:05:01;17.71;58.27
68098;DHT22;54886;47.036;15.466;2022-07-12T06:07:26;17.74;56.85
68098;DHT22;54886;47.036;15.466;2022-07-12T06:09:51;17.72;57.12
68098;DHT22;54886;47.036;15.466;2022-07-12T06:12:17;17.75;57.15
68098;DHT22;54886;47.036;15.466;2022-07-12T06:14:42;17.81;57.33
68098;DHT22;54886;47.036;15.466;2022-07-12T06:17:08;17.79;58.05
68098;DHT22;54886;47.036;15.466;2022-07-12T06:19:34;17.85;58.20
68098;DHT22;54886;47.036;15.466;2022-07-12T06:21:59;17.87;59.50
68098;DHT22;54886;47.036;15.466;2022-07-12T06:24:25;17.93;58.73
68098;DHT22;54886;47.036;15.466;2022-07-12T06:26:51;17.96;57.42
68098;DHT22;54886;47.036;15.466;2022-07-12T06:29:16;18.00;58.03
68098;DHT22;54886;47.036;15.466;2022-07-12T06:31:41;18.06;58.79
68098;DHT22;54886;47.036;15.466;2022-07-12T06:34:07;18.21;56.57
68098;DHT22;54886;47.036;15.466;2022-07-12T06:36:32;18.36;59.14
68098;DHT22;54886;47.036;15.466;2022-07-12T06:38:58;18.45;58.33
68098;DHT22;54886;47.036;15.466;2022-07-12T06:41:23;18.58;59.23
68098;DHT22;54886;47.036;15.466;2022-07-12T06:43:50;18.59;58.72
68098;DHT22;54886;47.036;15.466;2022-07-12T06:46:15;18.62;58.74
68098;DHT22;54886;47.036;15.466;2022-07-12T06:48:40;18.64;57.76
68098;DHT22;54886;47.036;15.466;2022-07-12T06:51:06;18.68;57.54
68098;DHT22;54886;47.036;15.466;2022-07-12T06:53:31;18.73;57.24
68098;DHT22;54886;47.036;15.466;2022-07-12T06:55:56;18.76;57.36
68098;DHT22;54886;47.036;15.466;2022-07-12T06:58:22;18.79;56.57
68098;DHT22;54886;47.036;15.466;2022-07-12T07:00:48;18.81;57.08
68098;DHT22;54886;47.036;15.466;2022-07-12T07:03:14;18.84;57.68
68098;DHT22;54886;47.036;15.466;2022-07-12T07:05:39;18.86;59.43
68098;DHT22;54886;47.036;15.466;2022-07-12T07:08:05;18.91;60.94
68098;DHT22;54886;47.036;15.466;2022-07-12T07:10:30;18.95;60.02
68098;DHT22;54886;47.036;15.466;2022-07-12T07:12:56;18.95;59.34
68098;DHT22;54886;47.036;15.466;2022-07-12T07:15:21;19.00;60.04
68098;DHT22;54886;47.036;15.466;2022-07-12T07:17:47;19.02;59.86
68098;DHT22;54886;47.036;15.466;2022-07-12T07:20:12;19.07;58.86
68098;DHT22;54886;47.036;15.466;2022-07-12T07:22:38;19.10;59.26
68098;DHT22;54886;47.036;15.466;2022-07-12T07:25:05;19.14;59.60
68098;DHT22;54886;47.036;15.466;2022-07-12T07:27:30;19.14;59.58
68098;DHT22;54886;47.036;15.466;2022-07-12T07:29:56;19.22;59.53
68098;DHT22;54886;47.036;15.466;2022-07-12T07:32:40;19.22;58.53
68098;DHT22;54886;47.036;15.466;2022-07-12T07:35:05;19.26;59.87
68098;DHT22;54886;47.036;15.466;2022-07-12T07:37:32;19.28;59.93
68098;DHT22;54886;47.036;15.466;2022-07-12T07:39:57;19.34;60.78
68098;DHT22;54886;47.036;15.466;2022-07-12T07:42:23;19.43;59.29
68098;DHT22;54886;47.036;15.466;2022-07-12T07:44:48;19.48;59.79
68098;DHT22;54886;47.036;15.466;2022-07-12T07:47:14;19.48;59.18
68098;DHT22;54886;47.036;15.466;2022-07-12T07:49:39;19.53;58.43
68098;DHT22;54886;47.036;15.466;2022-07-12T07:52:04;19.54;58.73
68098;DHT22;54886;47.036;15.466;2022-07-12T07:54:30;19.57;57.89
68098;DHT22;54886;47.036;15.466;2022-07-12T07:56:55;19.59;55.95
68098;DHT22;54886;47.036;15.466;2022-07-12T07:59:21;19.62;55.80
68098;DHT22;54886;47.036;15.466;2022-07-12T08:01:46;19.69;56.04
68098;DHT22;54886;47.036;15.466;2022-07-12T08:04:14;19.71;55.48
68098;DHT22;54886;47.036;15.466;2022-07-12T08:06:41;19.75;55.71
68098;DHT22;54886;47.036;15.466;2022-07-12T08:09:07;19.75;55.28
68098;DHT22;54886;47.036;15.466;2022-07-12T08:11:32;19.81;55.60
68098;DHT22;54886;47.036;15.466;2022-07-12T08:13:58;19.85;56.37
68098;DHT22;54886;47.036;15.466;2022-07-12T08:16:24;19.86;56.29
68098;DHT22;54886;47.036;15.466;2022-07-12T08:18:49;19.90;56.03
68098;DHT22;54886;47.036;15.466;2022-07-12T08:21:15;19.92;56.56
68098;DHT22;54886;47.036;15.466;2022-07-12T08:23:40;19.97;55.63
68098;DHT22;54886;47.036;15.466;2022-07-12T08:26:05;20.00;57.21
68098;DHT22;54886;47.036;15.466;2022-07-12T08:28:31;20.00;54.75
68098;DHT22;54886;47.036;15.466;2022-07-12T08:30:56;20.00;54.96
68098;DHT22;54886;47.036;15.466;2022-07-12T08:33:22;20.02;55.89
68098;DHT22;54886;47.036;15.466;2022-07-12T08:35:47;20.00;55.18
68098;DHT22;54886;47.036;15.466;2022-07-12T08:38:12;20.05;56.67
68098;DHT22;54886;47.036;15.466;2022-07-12T08:40:40;20.08;57.47
68098;DHT22;54886;47.036;15.466;2022-07-12T08:43:06;20.08;56.24
68098;DHT22;54886;47.036;15.466;2022-07-12T08:45:31;20.09;55.77
68098;DHT22;54886;47.036;15.466;2022-07-12T08:47:56;20.06;55.69
68098;DHT22;54886;47.036;15.466;2022-07-12T08:50:22;20.09;54.23
68098;DHT22;54886;47.036;15.466;2022-07-12T08:52:54;20.09;54.45
68098;DHT22;54886;47.036;15.466;2022-07-12T08:55:33;20.05;54.26
68098;DHT22;54886;47.036;15.466;2022-07-12T08:58:14;20.09;53.70
68098;DHT22;54886;47.036;15.466;2022-07-12T09:00:40;20.08;54.37
68098;DHT22;54886;47.036;15.466;2022-07-12T09:03:05;20.10;54.42
68098;DHT22;54886;47.036;15.466;2022-07-12T09:05:33;20.13;54.93
68098;DHT22;54886;47.036;15.466;2022-07-12T09:08:05;20.16;54.69
68098;DHT22;54886;47.036;15.466;2022-07-12T09:10:32;20.22;55.09
68098;DHT22;54886;47.036;15.466;2022-07-12T09:12:58;20.27;54.46
68098;DHT22;54886;47.036;15.466;2022-07-12T09:15:24;20.30;54.71
68098;DHT22;54886;47.036;15.466;2022-07-12T09:18:00;20.36;55.51
68098;DHT22;54886;47.036;15.466;2022-07-12T09:20:36;20.39;54.79
68098;DHT22;54886;47.036;15.466;2022-07-12T09:23:08;20.41;55.11
68098;DHT22;54886;47.036;15.466;2022-07-12T09:25:35;20.48;56.06
68098;DHT22;54886;47.036;15.466;2022-07-12T09:28:05;20.55;55.19
68098;DHT22;54886;47.036;15.466;2022-07-12T09:30:31;20.68;55.88
68098;DHT22;54886;47.036;15.466;2022-07-12T09:33:01;20.71;55.52
68098;DHT22;54886;47.036;15.466;2022-07-12T09:36:06;20.88;54.13
68098;DHT22;54886;47.036;15.466;2022-07-12T09:38:33;20.92;54.18
68098;DHT22;54886;47.036;15.466;2022-07-12T09:40:59;20.98;55.99
68098;DHT22;54886;47.036;15.466;2022-07-12T09:43:26;21.02;54.00
68098;DHT22;54886;47.036;15.466;2022-07-12T09:45:52;21.07;53.74
68098;DHT22;54886;47.036;15.466;2022-07-12T09:48:20;21.07;52.94
68098;DHT22;54886;47.036;15.466;2022-07-12T09:50:48;21.12;52.83
68098;DHT22;54886;47.036;15.466;2022-07-12T09:55:52;21.29;54.38
68098;DHT22;54886;47.036;15.466;2022-07-12T09:58:23;21.31;53.38
68098;DHT22;54886;47.036;15.466;2022-07-12T10:00:53;21.34;54.21
68098;DHT22;54886;47.036;15.466;2022-07-12T10:03:22;21.46;53.23
68098;DHT22;54886;47.036;15.466;2022-07-12T10:05:51;21.44;52.80
68098;DHT22;54886;47.036;15.466;2022-07-12T10:08:19;21.48;53.35
68098;DHT22;54886;47.036;15.466;2022-07-12T10:10:45;21.55;54.94
68098;DHT22;54886;47.036;15.466;2022-07-12T10:13:11;21.59;55.75
68098;DHT22;54886;47.036;15.466;2022-07-12T10:15:38;21.61;54.02
68098;DHT22;54886;47.036;15.466;2022-07-12T10:18:04;21.68;55.43
68098;DHT22;54886;47.036;15.466;2022-07-12T10:20:31;21.69;53.47
68098;DHT22;54886;47.036;15.466;2022-07-12T10:25:45;21.75;52.36
68098;DHT22;54886;47.036;15.466;2022-07-12T10:28:12;21.85;52.06
68098;DHT22;54886;47.036;15.466;2022-07-12T10:30:46;21.92;52.59
68098;DHT22;54886;47.036;15.466;2022-07-12T10:33:18;22.08;52.20
68098;DHT22;54886;47.036;15.466;2022-07-12T10:36:17;22.14;50.93
68098;DHT22;54886;47.036;15.466;2022-07-12T10:39:10;22.08;51.22
68098;DHT22;54886;47.036;15.466;2022-07-12T10:41:36;22.06;50.66
68098;DHT22;54886;47.036;15.466;2022-07-12T10:44:05;22.05;51.03
68098;DHT22;54886;47.036;15.466;2022-07-12T10:46:31;22.06;51.46
68098;DHT22;54886;47.036;15.466;2022-07-12T10:49:26;22.06;50.63
68098;DHT22;54886;47.036;15.466;2022-07-12T10:54:47;22.12;53.36
68098;DHT22;54886;47.036;15.466;2022-07-12T10:58:00;22.13;50.93
68098;DHT22;54886;47.036;15.466;2022-07-12T11:00:01;22.14;51.42
68098;DHT22;54886;47.036;15.466;2022-07-12T11:02:27;22.16;50.97
68098;DHT22;54886;47.036;15.466;2022-07-12T11:04:53;22.26;51.21
68098;DHT22;54886;47.036;15.466;2022-07-12T11:07:19;22.41;51.30
68098;DHT22;54886;47.036;15.466;2022-07-12T11:09:45;22.47;49.50
68098;DHT22;54886;47.036;15.466;2022-07-12T11:12:10;22.44;49.38
68098;DHT22;54886;47.036;15.466;2022-07-12T11:14:39;22.50;48.50
68098;DHT22;54886;47.036;15.466;2022-07-12T11:17:05;22.58;49.20
68098;DHT22;54886;47.036;15.466;2022-07-12T11:19:31;22.65;48.21
68098;DHT22;54886;47.036;15.466;2022-07-12T11:21:57;22.68;48.31
68098;DHT22;54886;47.036;15.466;2022-07-12T11:24:31;22.71;48.07
68098;DHT22;54886;47.036;15.466;2022-07-12T11:26:58;22.72;47.90
68098;DHT22;54886;47.036;15.466;2022-07-12T11:29:25;22.64;48.24
68098;DHT22;54886;47.036;15.466;2022-07-12T11:31:59;22.67;48.55
68098;DHT22;54886;47.036;15.466;2022-07-12T11:34:26;22.69;48.16
68098;DHT22;54886;47.036;15.466;2022-07-12T11:37:03;22.75;48.20
68098;DHT22;54886;47.036;15.466;2022-07-12T11:39:35;22.75;48.16
68098;DHT22;54886;47.036;15.466;2022-07-12T11:42:01;22.76;48.76
68098;DHT22;54886;47.036;15.466;2022-07-12T11:44:43;22.79;48.06
68098;DHT22;54886;47.036;15.466;2022-07-12T11:47:09;22.79;47.43
68098;DHT22;54886;47.036;15.466;2022-07-12T11:49:35;22.87;47.92
68098;DHT22;54886;47.036;15.466;2022-07-12T11:52:04;22.88;48.13
68098;DHT22;54886;47.036;15.466;2022-07-12T11:54:30;22.98;48.30
68098;DHT22;54886;47.036;15.466;2022-07-12T11:57:08;23.01;47.63
68098;DHT22;54886;47.036;15.466;2022-07-12T11:59:34;23.03;47.65
68098;DHT22;54886;47.036;15.466;2022-07-12T12:02:28;23.18;46.97
68098;DHT22;54886;47.036;15.466;2022-07-12T12:04:54;23.29;47.60
68098;DHT22;54886;47.036;15.466;2022-07-12T12:07:22;23.34;46.47
68098;DHT22;54886;47.036;15.466;2022-07-12T12:12:26;23.53;46.44
68098;DHT22;54886;47.036;15.466;2022-07-12T12:14:51;23.63;46.32
68098;DHT22;54886;47.036;15.466;2022-07-12T12:17:17;23.67;45.46
68098;DHT22;54886;47.036;15.466;2022-07-12T12:19:42;23.73;44.61
68098;DHT22;54886;47.036;15.466;2022-07-12T12:22:48;23.74;44.88
68098;DHT22;54886;47.036;15.466;2022-07-12T12:25:14;23.75;44.33
68098;DHT22;54886;47.036;15.466;2022-07-12T12:27:48;23.73;44.04
68098;DHT22;54886;47.036;15.466;2022-07-12T12:30:15;23.65;44.17
68098;DHT22;54886;47.036;15.466;2022-07-12T12:36:21;23.67;44.95
68098;DHT22;54886;47.036;15.466;2022-07-12T12:38:51;23.57;43.96
68098;DHT22;54886;47.036;15.466;2022-07-12T12:44:39;23.51;44.03
68098;DHT22;54886;47.036;15.466;2022-07-12T12:50:46;23.50;44.29
68098;DHT22;54886;47.036;15.466;2022-07-12T12:56:33;23.47;45.64
68098;DHT22;54886;47.036;15.466;2022-07-12T13:02:20;23.50;43.23
68098;DHT22;54886;47.036;15.466;2022-07-12T13:04:47;23.45;43.48
68098;DHT22;54886;47.036;15.466;2022-07-12T13:07:13;23.40;44.14
68098;DHT22;54886;47.036;15.466;2022-07-12T13:09:40;23.40;43.26
68098;DHT22;54886;47.036;15.466;2022-07-12T13:12:06;23.47;43.75
68098;DHT22;54886;47.036;15.466;2022-07-12T13:17:54;23.61;42.99
68098;DHT22;54886;47.036;15.466;2022-07-12T13:20:20;23.53;41.81
68098;DHT22;54886;47.036;15.466;2022-07-12T13:22:46;23.53;42.15
68098;DHT22;54886;47.036;15.466;2022-07-12T13:28:33;23.50;42.82
68098;DHT22;54886;47.036;15.466;2022-07-12T13:30:59;23.60;44.29
68098;DHT22;54886;47.036;15.466;2022-07-12T13:36:46;23.68;42.76
68098;DHT22;54886;47.036;15.466;2022-07-12T13:42:33;23.53;42.67
68098;DHT22;54886;47.036;15.466;2022-07-12T13:48:21;23.50;42.77
68098;DHT22;54886;47.036;15.466;2022-07-12T13:50:47;23.50;42.49
68098;DHT22;54886;47.036;15.466;2022-07-12T13:53:13;23.43;42.75
68098;DHT22;54886;47.036;15.466;2022-07-12T13:59:00;23.39;44.90
68098;DHT22;54886;47.036;15.466;2022-07-12T14:01:28;23.39;44.47
68098;DHT22;54886;47.036;15.466;2022-07-12T14:03:54;23.33;44.91
68098;DHT22;54886;47.036;15.466;2022-07-12T14:06:20;23.37;45.79
68098;DHT22;54886;47.036;15.466;2022-07-12T14:08:46;23.39;46.22
68098;DHT22;54886;47.036;15.466;2022-07-12T14:11:12;23.37;46.15
68098;DHT22;54886;47.036;15.466;2022-07-12T14:16:59;23.43;45.49
68098;DHT22;54886;47.036;15.466;2022-07-12T14:19:25;23.57;47.89
68098;DHT22;54886;47.036;15.466;2022-07-12T14:21:52;23.68;46.03
68098;DHT22;54886;47.036;15.466;2022-07-12T14:27:40;23.70;41.73
68098;DHT22;54886;47.036;15.466;2022-07-12T14:30:08;23.61;41.92
68098;DHT22;54886;47.036;15.466;2022-07-12T14:32:35;23.56;41.93
68098;DHT22;54886;47.036;15.466;2022-07-12T14:35:01;23.51;41.42
68098;DHT22;54886;47.036;15.466;2022-07-12T14:37:27;23.49;42.44
68098;DHT22;54886;47.036;15.466;2022-07-12T14:39:52;23.43;43.57
68098;DHT22;54886;47.036;15.466;2022-07-12T14:42:18;23.45;43.71
68098;DHT22;54886;47.036;15.466;2022-07-12T14:44:45;23.40;42.98
68098;DHT22;54886;47.036;15.466;2022-07-12T14:50:33;23.39;42.97
68098;DHT22;54886;47.036;15.466;2022-07-12T14:52:58;23.39;43.50
68098;DHT22;54886;47.036;15.466;2022-07-12T14:55:24;23.39;43.44
68098;DHT22;54886;47.036;15.466;2022-07-12T15:01:12;23.50;43.12
68098;DHT22;54886;47.036;15.466;2022-07-12T15:03:38;23.58;43.57
68098;DHT22;54886;47.036;15.466;2022-07-12T15:06:04;23.63;42.62
68098;DHT22;54886;47.036;15.466;2022-07-12T15:11:51;23.73;43.57
68098;DHT22;54886;47.036;15.466;2022-07-12T15:14:17;23.71;43.37
68098;DHT22;54886;47.036;15.466;2022-07-12T15:20:06;23.71;44.21
68098;DHT22;54886;47.036;15.466;2022-07-12T15:25:54;23.84;44.26
68098;DHT22;54886;47.036;15.466;2022-07-12T15:28:20;23.82;43.34
68098;DHT22;54886;47.036;15.466;2022-07-12T15:30:47;23.86;44.10
68098;DHT22;54886;47.036;15.466;2022-07-12T15:33:12;23.88;44.24
68098;DHT22;54886;47.036;15.466;2022-07-12T15:35:38;23.88;44.23
68098;DHT22;54886;47.036;15.466;2022-07-12T15:38:04;23.89;44.42
68098;DHT22;54886;47.036;15.466;2022-07-12T15:40:31;23.86;43.61
68098;DHT22;54886;47.036;15.466;2022-07-12T15:42:56;23.86;44.67
68098;DHT22;54886;47.036;15.466;2022-07-12T15:45:22;23.84;43.78
68098;DHT22;54886;47.036;15.466;2022-07-12T15:47:47;23.77;44.47
68098;DHT22;54886;47.036;15.466;2022-07-12T15:50:13;23.77;42.70
68098;DHT22;54886;47.036;15.466;2022-07-12T15:52:38;23.77;42.84
68098;DHT22;54886;47.036;15.466;2022-07-12T15:55:22;23.77;42.99
68098;DHT22;54886;47.036;15.466;2022-07-12T15:57:47;23.77;42.14
68098;DHT22;54886;47.036;15.466;2022-07-12T16:00:13;23.78;41.02
68098;DHT22;54886;47.036;15.466;2022-07-12T16:02:39;23.75;40.56
68098;DHT22;54886;47.036;15.466;2022-07-12T16:05:05;23.77;39.57
68098;DHT22;54886;47.036;15.466;2022-07-12T16:07:31;23.79;40.38
68098;DHT22;54886;47.036;15.466;2022-07-12T16:10:01;23.82;40.12
68098;DHT22;54886;47.036;15.466;2022-07-12T16:12:26;23.91;39.39
68098;DHT22;54886;47.036;15.466;2022-07-12T16:14:52;23.94;39.81
68098;DHT22;54886;47.036;15.466;2022-07-12T16:17:17;23.97;38.89
68098;DHT22;54886;47.036;15.466;2022-07-12T16:19:43;23.95;38.75
68098;DHT22;54886;47.036;15.466;2022-07-12T16:22:11;23.88;39.36
68098;DHT22;54886;47.036;15.466;2022-07-12T16:24:37;23.82;40.07
68098;DHT22;54886;47.036;15.466;2022-07-12T16:27:02;23.85;39.08